createdAt,value
2019-01-27T00:01:57.049Z,93919.67
2019-01-27T00:04:27.985Z,93908.38
2019-01-27T00:06:58.284Z,93923.70
2019-01-27T00:09:29.303Z,93926.20
2019-01-27T00:11:59.993Z,93919.19
2019-01-27T00:14:30.469Z,93934.91
2019-01-27T00:17:01.005Z,93915.11
2019-01-27T00:19:31.636Z,93918.60
2019-01-27T00:22:01.928Z,93924.53
2019-01-27T00:24:32.414Z,93927.62
2019-01-27T00:27:03.321Z,93940.81
2019-01-27T00:29:33.618Z,93934.91
2019-01-27T00:32:04.276Z,93941.03
2019-01-27T00:34:35.012Z,93928.00
2019-01-27T00:37:05.541Z,93941.17
2019-01-27T00:39:36.273Z,93939.58
2019-01-27T00:42:06.868Z,93949.53
2019-01-27T00:44:37.515Z,93943.67
2019-01-27T00:47:08.377Z,93944.23
2019-01-27T00:49:38.783Z,93949.66
2019-01-27T00:52:09.220Z,93948.80
2019-01-27T00:54:39.904Z,93955.05
2019-01-27T00:57:10.187Z,93955.13
2019-01-27T00:59:40.464Z,93940.77
2019-01-27T01:02:11.368Z,93950.59
2019-01-27T01:04:41.844Z,93950.59
2019-01-27T01:07:12.410Z,93945.06
2019-01-27T01:09:43.143Z,93956.95
2019-01-27T01:12:13.967Z,93946.90
2019-01-27T01:14:44.262Z,93950.58
2019-01-27T01:17:15.097Z,93945.66
2019-01-27T01:19:45.910Z,93944.17
2019-01-27T01:22:16.582Z,93946.30
2019-01-27T01:24:47.318Z,93942.39
2019-01-27T01:27:18.475Z,93945.31
2019-01-27T01:29:48.811Z,93955.84
2019-01-27T01:32:19.466Z,93957.63
2019-01-27T01:34:50.090Z,93958.80
2019-01-27T01:37:20.778Z,93953.18
2019-01-27T01:39:51.156Z,93966.03
2019-01-27T01:42:21.770Z,93970.76
2019-01-27T01:44:52.549Z,93966.85
2019-01-27T01:47:23.240Z,93972.73
2019-01-27T01:49:53.757Z,93963.74
2019-01-27T01:52:24.045Z,93966.51
2019-01-27T01:54:54.844Z,93966.14
2019-01-27T01:57:25.123Z,93983.31
2019-01-27T01:59:55.605Z,93959.54
2019-01-27T02:02:26.113Z,93970.60
2019-01-27T02:04:56.915Z,93959.54
2019-01-27T02:07:27.222Z,93973.95
2019-01-27T02:09:58.109Z,93967.34
2019-01-27T02:12:28.625Z,93973.79
2019-01-27T02:15:00.242Z,93965.59
2019-01-27T02:17:30.490Z,93963.77
2019-01-27T02:20:00.862Z,93959.30
2019-01-27T02:22:31.330Z,93964.94
2019-01-27T02:25:01.704Z,93961.17
2019-01-27T02:27:31.976Z,93958.30
2019-01-27T02:30:02.969Z,93952.78
2019-01-27T02:32:33.702Z,93954.42
2019-01-27T02:35:04.241Z,93955.80
2019-01-27T02:37:34.663Z,93964.58
2019-01-27T02:40:06.410Z,93962.13
2019-01-27T02:42:36.719Z,93968.23
2019-01-27T02:45:07.737Z,93968.11
2019-01-27T02:47:38.135Z,93969.47
2019-01-27T02:50:08.996Z,93973.58
2019-01-27T02:52:39.387Z,93962.42
2019-01-27T02:55:09.798Z,93974.06
2019-01-27T02:57:40.280Z,93973.15
2019-01-27T03:00:12.038Z,93967.37
2019-01-27T03:02:43.500Z,93965.33
2019-01-27T03:05:33.486Z,93966.53
2019-01-27T03:08:04.577Z,93969.92
2019-01-27T03:10:35.131Z,93969.35
2019-01-27T03:13:05.718Z,93980.03
2019-01-27T03:15:36.955Z,93977.64
2019-01-27T03:18:07.356Z,93972.70
2019-01-27T03:20:38.174Z,93975.53
2019-01-27T03:23:08.449Z,93981.18
2019-01-27T03:25:38.992Z,93978.53
2019-01-27T03:28:09.370Z,93987.61
2019-01-27T03:30:39.936Z,93983.47
2019-01-27T03:33:10.265Z,93980.80
2019-01-27T03:35:41.099Z,93979.36
2019-01-27T03:38:11.403Z,93984.69
2019-01-27T03:40:41.781Z,93982.09
2019-01-27T03:43:12.410Z,93979.91
2019-01-27T03:45:42.927Z,93976.52
2019-01-27T03:48:13.429Z,93977.20
2019-01-27T03:50:44.392Z,93978.84
2019-01-27T03:53:14.683Z,93987.89
2019-01-27T03:55:45.214Z,93982.58
2019-01-27T03:58:15.544Z,93983.98
2019-01-27T04:00:47.029Z,93985.66
2019-01-27T04:03:17.667Z,93977.16
2019-01-27T04:05:48.324Z,93974.42
2019-01-27T04:08:18.626Z,93970.89
2019-01-27T04:10:49.185Z,93975.06
2019-01-27T04:13:20.997Z,93972.45
2019-01-27T04:15:51.489Z,93968.15
2019-01-27T04:18:22.180Z,93969.93
2019-01-27T04:20:52.947Z,93963.97
2019-01-27T04:23:23.260Z,93962.91
2019-01-27T04:25:53.672Z,93968.64
2019-01-27T04:28:24.054Z,93970.84
2019-01-27T04:30:54.665Z,93978.69
2019-01-27T04:33:25.332Z,93979.95
2019-01-27T04:35:56.048Z,93971.74
2019-01-27T04:38:26.727Z,93972.41
2019-01-27T04:40:57.643Z,93979.05
2019-01-27T04:43:27.924Z,93983.98
2019-01-27T04:45:58.546Z,93990.48
2019-01-27T04:48:29.454Z,93981.13
2019-01-27T04:51:00.047Z,93989.43
2019-01-27T04:53:30.395Z,93981.34
2019-01-27T04:56:00.957Z,93975.72
2019-01-27T04:58:31.398Z,93974.30
2019-01-27T05:01:02.207Z,93982.95
2019-01-27T05:03:57.494Z,93982.70
2019-01-27T05:06:27.974Z,93980.16
2019-01-27T05:08:58.378Z,93983.82
2019-01-27T05:11:28.723Z,93989.95
2019-01-27T05:13:59.058Z,93988.39
2019-01-27T05:16:29.708Z,93987.06
2019-01-27T05:18:59.996Z,93993.41
2019-01-27T05:21:30.574Z,93995.87
2019-01-27T05:24:01.256Z,93998.83
2019-01-27T05:26:31.615Z,93996.69
2019-01-27T05:29:01.969Z,94003.79
2019-01-27T05:31:32.640Z,93999.80
2019-01-27T05:34:03.535Z,93996.94
2019-01-27T05:36:33.850Z,93999.00
2019-01-27T05:39:06.994Z,93995.78
2019-01-27T05:41:37.892Z,93996.66
2019-01-27T05:44:08.200Z,94000.20
2019-01-27T05:46:39.071Z,94001.44
2019-01-27T05:49:09.732Z,93999.75
2019-01-27T05:51:40.004Z,93995.04
2019-01-27T05:54:10.372Z,93997.45
2019-01-27T05:56:40.761Z,93997.27
2019-01-27T05:59:11.124Z,93998.03
2019-01-27T06:01:42.392Z,93999.33
2019-01-27T06:04:12.731Z,93997.05
2019-01-27T06:06:43.255Z,93995.02
2019-01-27T06:09:13.908Z,94005.84
2019-01-27T06:11:44.228Z,93997.02
2019-01-27T06:14:14.560Z,94005.55
2019-01-27T06:16:45.504Z,94000.00
2019-01-27T06:19:15.816Z,94007.41
2019-01-27T06:21:46.122Z,94003.71
2019-01-27T06:24:16.793Z,94009.30
2019-01-27T06:26:47.335Z,94012.66
2019-01-27T06:29:17.662Z,94008.38
2019-01-27T06:31:48.508Z,94011.75
2019-01-27T06:34:20.438Z,94013.73
2019-01-27T06:36:51.232Z,94004.25
2019-01-27T06:39:21.761Z,94010.25
2019-01-27T06:41:52.992Z,94007.45
2019-01-27T06:44:23.739Z,94006.08
2019-01-27T06:46:54.309Z,94007.09
2019-01-27T06:49:24.719Z,94001.86
2019-01-27T06:51:55.116Z,94003.44
2019-01-27T06:54:25.434Z,93999.41
2019-01-27T06:56:55.863Z,93991.00
2019-01-27T06:59:30.907Z,94005.22
2019-01-27T07:02:09.614Z,94002.66
2019-01-27T07:05:02.301Z,94008.59
2019-01-27T07:07:54.570Z,94010.91
2019-01-27T07:10:49.767Z,94012.09
2019-01-27T07:13:38.536Z,94017.06
2019-01-27T07:16:43.203Z,94015.30
2019-01-27T07:19:44.739Z,94020.77
2019-01-27T07:22:37.367Z,94018.52
2019-01-27T07:25:42.757Z,94009.94
2019-01-27T07:28:35.041Z,94005.80
2019-01-27T07:31:29.335Z,93997.15
2019-01-27T07:34:19.016Z,94004.94
2019-01-27T07:37:11.090Z,93991.58
2019-01-27T07:39:58.185Z,93998.26
2019-01-27T07:42:45.322Z,93994.18
2019-01-27T07:45:35.108Z,93994.66
2019-01-27T07:48:24.111Z,93991.17
2019-01-27T07:51:25.608Z,93997.76
2019-01-27T07:54:19.316Z,94000.16
2019-01-27T07:57:07.640Z,93997.05
2019-01-27T07:59:56.895Z,93999.22
2019-01-27T08:02:38.423Z,93992.47
2019-01-27T08:05:34.826Z,93994.37
2019-01-27T08:08:24.158Z,93986.23
2019-01-27T08:11:13.478Z,93989.50
2019-01-27T08:13:49.525Z,93995.95
2019-01-27T08:16:44.793Z,94003.73
2019-01-27T08:19:40.859Z,93998.69
2019-01-27T08:22:28.801Z,93999.92
2019-01-27T08:25:33.436Z,93999.66
2019-01-27T08:28:21.740Z,94000.91
2019-01-27T08:31:01.326Z,93996.20
2019-01-27T08:33:56.598Z,93992.70
2019-01-27T08:36:36.437Z,94000.06
2019-01-27T08:39:43.458Z,93990.88
2019-01-27T08:42:31.402Z,93988.30
2019-01-27T08:45:33.334Z,93987.72
2019-01-27T08:48:03.693Z,93988.77
2019-01-27T08:50:34.248Z,93996.80
2019-01-27T08:53:05.206Z,93993.73
2019-01-27T08:55:35.521Z,93985.69
2019-01-27T08:58:06.449Z,93994.31
2019-01-27T09:00:38.382Z,93995.33
2019-01-27T09:03:36.800Z,93999.30
2019-01-27T09:06:32.670Z,93983.44
2019-01-27T09:09:25.108Z,93991.95
2019-01-27T09:12:20.402Z,93985.70
2019-01-27T09:15:21.981Z,93989.67
2019-01-27T09:18:26.980Z,93989.08
2019-01-27T09:21:13.118Z,93995.48
2019-01-27T09:23:59.638Z,93984.73
2019-01-27T09:26:42.183Z,93989.72
2019-01-27T09:29:31.408Z,94000.30
2019-01-27T09:32:19.846Z,94003.73
2019-01-27T09:35:15.107Z,94003.91
2019-01-27T09:38:16.853Z,94000.97
2019-01-27T09:41:08.992Z,93998.31
2019-01-27T09:44:01.172Z,93993.11
2019-01-27T09:46:53.732Z,93983.02
2019-01-27T09:49:40.724Z,93985.66
2019-01-27T09:52:19.322Z,93986.20
2019-01-27T09:55:23.705Z,93983.99
2019-01-27T09:58:12.193Z,93984.31
2019-01-27T10:00:46.780Z,93986.43
2019-01-27T10:03:40.337Z,93978.01
2019-01-27T10:06:44.986Z,93971.11
2019-01-27T10:09:32.845Z,93961.59
2019-01-27T10:12:09.046Z,93958.59
2019-01-27T10:14:53.503Z,93951.77
2019-01-27T10:17:57.984Z,93951.23
2019-01-27T10:20:50.050Z,93947.86
2019-01-27T10:23:36.413Z,93947.52
2019-01-27T10:26:17.057Z,93945.70
2019-01-27T10:29:04.863Z,93947.67
2019-01-27T10:31:53.114Z,93950.41
2019-01-27T10:34:45.616Z,93941.05
2019-01-27T10:37:33.490Z,93940.53
2019-01-27T10:40:26.722Z,93945.03
2019-01-27T10:43:11.525Z,93950.11
2019-01-27T10:46:10.467Z,93939.94
2019-01-27T10:48:59.772Z,93931.17
2019-01-27T10:51:42.464Z,93930.48
2019-01-27T10:54:32.132Z,93927.53
2019-01-27T10:57:07.882Z,93923.03
2019-01-27T11:00:06.251Z,93914.70
2019-01-27T11:02:55.898Z,93905.22
2019-01-27T11:05:54.406Z,93906.96
2019-01-27T11:08:33.336Z,93898.37
2019-01-27T11:11:22.883Z,93899.36
2019-01-27T11:14:15.442Z,93898.64
2019-01-27T11:17:02.374Z,93894.42
2019-01-27T11:19:50.510Z,93894.03
2019-01-27T11:22:45.776Z,93894.28
2019-01-27T11:25:27.789Z,93896.42
2019-01-27T11:28:14.765Z,93897.13
2019-01-27T11:31:10.074Z,93897.16
2019-01-27T11:34:00.380Z,93889.33
2019-01-27T11:36:53.104Z,93889.90
2019-01-27T11:39:42.335Z,93884.78
2019-01-27T11:42:23.849Z,93882.63
2019-01-27T11:45:11.506Z,93882.77
2019-01-27T11:47:47.828Z,93877.28
2019-01-27T11:50:21.416Z,93867.27
2019-01-27T11:52:55.253Z,93864.16
2019-01-27T11:55:25.550Z,93855.13
2019-01-27T11:57:56.143Z,93854.35
2019-01-27T12:00:33.574Z,93850.69
2019-01-27T12:03:04.087Z,93850.93
2019-01-27T12:05:34.855Z,93848.59
2019-01-27T12:08:05.658Z,93849.37
2019-01-27T12:10:35.947Z,93843.06
2019-01-27T12:13:06.788Z,93839.70
2019-01-27T12:15:37.155Z,93837.84
2019-01-27T12:18:07.544Z,93827.70
2019-01-27T12:20:38.503Z,93824.27
2019-01-27T12:23:09.147Z,93825.52
2019-01-27T12:25:39.457Z,93828.34
2019-01-27T12:28:09.962Z,93830.82
2019-01-27T12:30:40.444Z,93825.53
2019-01-27T12:33:11.137Z,93826.56
2019-01-27T12:35:41.912Z,93825.98
2019-01-27T12:38:12.244Z,93821.97
2019-01-27T12:40:42.784Z,93817.40
2019-01-27T12:43:13.672Z,93817.45
2019-01-27T12:45:43.976Z,93816.55
2019-01-27T12:48:14.779Z,93820.47
2019-01-27T12:50:45.148Z,93818.40
2019-01-27T12:53:15.624Z,93818.77
2019-01-27T12:55:47.039Z,93812.06
2019-01-27T12:58:17.516Z,93810.44
2019-01-27T13:00:54.707Z,93821.97
2019-01-27T13:03:25.360Z,93818.80
2019-01-27T13:05:55.655Z,93817.55
2019-01-27T13:08:26.265Z,93810.71
2019-01-27T13:10:57.039Z,93811.24
2019-01-27T13:13:27.398Z,93808.57
2019-01-27T13:15:57.852Z,93807.80
2019-01-27T13:18:28.627Z,93799.53
2019-01-27T13:21:00.019Z,93797.42
2019-01-27T13:23:30.674Z,93799.83
2019-01-27T13:26:01.429Z,93801.21
2019-01-27T13:28:31.927Z,93799.53
2019-01-27T13:31:02.959Z,93797.45
2019-01-27T13:33:33.257Z,93802.01
2019-01-27T13:36:05.066Z,93799.80
2019-01-27T13:38:35.724Z,93804.34
2019-01-27T13:41:06.175Z,93803.97
2019-01-27T13:43:36.488Z,93804.67
2019-01-27T13:46:07.332Z,93804.55
2019-01-27T13:48:37.702Z,93800.02
2019-01-27T13:51:07.986Z,93795.05
2019-01-27T13:53:38.979Z,93796.91
2019-01-27T13:56:09.834Z,93791.41
2019-01-27T13:58:40.338Z,93790.56
2019-01-27T14:01:11.016Z,93784.58
2019-01-27T14:03:41.726Z,93784.42
2019-01-27T14:06:12.547Z,93772.23
2019-01-27T14:08:43.103Z,93773.38
2019-01-27T14:11:13.509Z,93777.30
2019-01-27T14:13:44.255Z,93773.34
2019-01-27T14:16:14.897Z,93782.74
2019-01-27T14:18:45.350Z,93800.70
2019-01-27T14:21:16.795Z,93783.59
2019-01-27T14:23:47.558Z,93791.41
2019-01-27T14:26:18.132Z,93794.58
2019-01-27T14:28:48.598Z,93792.94
2019-01-27T14:31:19.688Z,93795.98
2019-01-27T14:33:49.997Z,93798.44
2019-01-27T14:36:20.540Z,93791.52
2019-01-27T14:38:51.213Z,93784.23
2019-01-27T14:41:21.512Z,93786.15
2019-01-27T14:43:51.814Z,93794.61
2019-01-27T14:46:22.540Z,93787.27
2019-01-27T14:48:53.070Z,93792.60
2019-01-27T14:51:23.334Z,93793.48
2019-01-27T14:53:53.705Z,93804.66
2019-01-27T14:56:24.571Z,93809.94
2019-01-27T14:58:54.848Z,93806.40
2019-01-27T15:01:25.424Z,93805.37
2019-01-27T15:03:55.981Z,93806.41
2019-01-27T15:06:26.500Z,93810.18
2019-01-27T15:08:57.017Z,93808.52
2019-01-27T15:11:27.325Z,93817.22
2019-01-27T15:13:58.196Z,93817.80
2019-01-27T15:16:28.634Z,93813.93
2019-01-27T15:18:58.917Z,93817.15
2019-01-27T15:21:29.671Z,93816.69
2019-01-27T15:24:00.087Z,93817.55
2019-01-27T15:26:30.441Z,93817.91
2019-01-27T15:29:00.862Z,93817.03
2019-01-27T15:31:31.564Z,93825.15
2019-01-27T15:34:01.847Z,93822.08
2019-01-27T15:36:32.383Z,93833.89
2019-01-27T15:39:04.743Z,93823.30
2019-01-27T15:41:36.409Z,93831.16
2019-01-27T15:44:06.979Z,93828.50
2019-01-27T15:46:37.266Z,93834.66
2019-01-27T15:49:08.009Z,93840.98
2019-01-27T15:51:38.732Z,93829.42
2019-01-27T15:54:09.264Z,93836.34
2019-01-27T15:56:39.579Z,93834.48
2019-01-27T15:59:10.264Z,93837.84
2019-01-27T16:01:40.621Z,93846.61
2019-01-27T16:04:10.945Z,93844.26
2019-01-27T16:06:41.629Z,93845.73
2019-01-27T16:09:12.392Z,93850.88
2019-01-27T16:11:43.075Z,93855.11
2019-01-27T16:14:13.509Z,93857.56
2019-01-27T16:16:44.903Z,93861.50
2019-01-27T16:19:15.445Z,93861.22
2019-01-27T16:21:45.725Z,93861.30
2019-01-27T16:24:21.614Z,93866.13
2019-01-27T16:26:52.302Z,93860.70
2019-01-27T16:29:38.603Z,93867.28
2019-01-27T16:32:17.041Z,93867.77
2019-01-27T16:34:52.018Z,93868.91
2019-01-27T16:37:22.776Z,93873.13
2019-01-27T16:39:53.227Z,93876.18
2019-01-27T16:42:23.940Z,93880.78
2019-01-27T16:44:54.261Z,93877.67
2019-01-27T16:47:24.793Z,93873.23
2019-01-27T16:49:55.292Z,93878.58
2019-01-27T16:52:25.550Z,93887.89
2019-01-27T16:54:56.604Z,93884.30
2019-01-27T16:57:27.228Z,93880.82
2019-01-27T16:59:57.590Z,93886.00
2019-01-27T17:02:28.273Z,93888.97
2019-01-27T17:04:59.202Z,93889.61
2019-01-27T17:07:30.674Z,93891.59
2019-01-27T17:10:01.411Z,93898.57
2019-01-27T17:12:32.139Z,93900.73
2019-01-27T17:15:02.631Z,93898.16
2019-01-27T17:17:33.391Z,93895.41
2019-01-27T17:20:03.949Z,93900.41
2019-01-27T17:22:34.683Z,93898.27
2019-01-27T17:25:06.826Z,93883.50
2019-01-27T17:27:37.339Z,93890.16
2019-01-27T17:30:11.019Z,93883.11
2019-01-27T17:32:41.612Z,93876.94
2019-01-27T17:35:13.470Z,93886.63
2019-01-27T17:37:43.770Z,93894.28
2019-01-27T17:40:15.483Z,93898.47
2019-01-27T17:42:45.835Z,93896.55
2019-01-27T17:45:16.869Z,93901.88
2019-01-27T17:47:47.487Z,93902.06
2019-01-27T17:50:18.164Z,93903.84
2019-01-27T17:52:49.015Z,93909.15
2019-01-27T17:55:37.323Z,93907.31
2019-01-27T17:58:27.947Z,93911.93
2019-01-27T18:01:16.244Z,93907.83
2019-01-27T18:04:05.499Z,93910.84
2019-01-27T18:06:47.042Z,93919.07
2019-01-27T18:09:24.529Z,93922.36
2019-01-27T18:12:01.021Z,93926.17
2019-01-27T18:14:34.798Z,93924.42
2019-01-27T18:17:05.528Z,93928.56
2019-01-27T18:19:35.904Z,93932.31
2019-01-27T18:22:06.531Z,93937.18
2019-01-27T18:24:36.959Z,93939.61
2019-01-27T18:27:07.401Z,93937.33
2019-01-27T18:29:38.133Z,93936.13
2019-01-27T18:32:08.649Z,93937.05
2019-01-27T18:34:38.956Z,93943.78
2019-01-27T18:37:09.762Z,93942.97
2019-01-27T18:39:40.347Z,93932.94
2019-01-27T18:42:11.070Z,93933.08
2019-01-27T18:44:41.721Z,93932.90
2019-01-27T18:47:12.148Z,93931.12
2019-01-27T18:49:42.427Z,93931.64
2019-01-27T18:52:12.923Z,93933.42
2019-01-27T18:55:02.242Z,93918.98
2019-01-27T18:57:38.611Z,93929.98
2019-01-27T19:00:31.652Z,93926.05
2019-01-27T19:03:13.234Z,93922.75
2019-01-27T19:06:09.049Z,93926.39
2019-01-27T19:08:57.171Z,93931.03
2019-01-27T19:11:52.018Z,93934.79
2019-01-27T19:14:39.782Z,93930.02
2019-01-27T19:17:27.772Z,93926.44
2019-01-27T19:20:18.482Z,93929.00
2019-01-27T19:23:06.676Z,93927.65
2019-01-27T19:25:58.765Z,93926.85
2019-01-27T19:28:37.176Z,93926.52
2019-01-27T19:31:25.343Z,93921.30
2019-01-27T19:34:13.596Z,93914.47
2019-01-27T19:37:01.878Z,93908.23
2019-01-27T19:40:02.362Z,93904.70
2019-01-27T19:42:43.075Z,93912.30
2019-01-27T19:45:23.847Z,93908.27
2019-01-27T19:48:07.654Z,93904.37
2019-01-27T19:51:00.282Z,93900.73
2019-01-27T19:53:46.138Z,93904.81
2019-01-27T19:56:27.451Z,93898.01
2019-01-27T19:59:22.834Z,93894.64
2019-01-27T20:02:11.499Z,93901.91
2019-01-27T20:05:09.509Z,93900.82
2019-01-27T20:08:05.295Z,93899.98
2019-01-27T20:10:58.432Z,93890.80
2019-01-27T20:13:59.997Z,93889.95
2019-01-27T20:16:51.475Z,93873.00
2019-01-27T20:19:39.482Z,93877.72
2019-01-27T20:22:47.295Z,93870.52
2019-01-27T20:25:43.246Z,93870.98
2019-01-27T20:28:44.884Z,93866.61
2019-01-27T20:31:37.922Z,93872.16
2019-01-27T20:34:42.805Z,93867.42
2019-01-27T20:37:19.009Z,93874.65
2019-01-27T20:40:01.639Z,93870.88
2019-01-27T20:42:42.835Z,93861.38
2019-01-27T20:45:32.886Z,93862.47
2019-01-27T20:48:17.648Z,93868.25
2019-01-27T20:51:16.044Z,93878.42
2019-01-27T20:54:08.226Z,93877.81
2019-01-27T20:56:45.841Z,93871.44
2019-01-27T20:59:34.053Z,93875.69
2019-01-27T21:02:26.319Z,93865.70
2019-01-27T21:05:20.799Z,93863.34
2019-01-27T21:08:06.003Z,93849.84
2019-01-27T21:10:46.591Z,93837.29
2019-01-27T21:13:35.910Z,93828.03
2019-01-27T21:16:18.459Z,93821.23
2019-01-27T21:18:56.722Z,93825.92
2019-01-27T21:21:27.467Z,93814.48
2019-01-27T21:23:58.212Z,93819.95
2019-01-27T21:26:28.590Z,93815.48
2019-01-27T21:29:00.204Z,93819.55
2019-01-27T21:31:30.950Z,93822.20
2019-01-27T21:34:01.635Z,93827.08
2019-01-27T21:36:32.021Z,93821.57
2019-01-27T21:39:02.805Z,93832.78
2019-01-27T21:41:33.092Z,93828.15
2019-01-27T21:44:03.440Z,93840.34
2019-01-27T21:46:34.259Z,93834.09
2019-01-27T21:49:04.894Z,93837.46
2019-01-27T21:51:35.727Z,93828.00
2019-01-27T21:54:06.231Z,93839.05
2019-01-27T21:56:36.801Z,93856.42
2019-01-27T21:59:07.464Z,93858.28
2019-01-27T22:01:37.970Z,93862.30
2019-01-27T22:04:08.327Z,93851.40
2019-01-27T22:06:39.250Z,93849.53
2019-01-27T22:09:10.620Z,93857.20
2019-01-27T22:11:40.905Z,93862.80
2019-01-27T22:14:11.302Z,93869.76
2019-01-27T22:16:41.718Z,93868.63
2019-01-27T22:19:11.999Z,93851.94
2019-01-27T22:21:42.892Z,93857.13
2019-01-27T22:24:13.196Z,93862.25
2019-01-27T22:26:43.843Z,93859.41
2019-01-27T22:29:14.302Z,93853.05
2019-01-27T22:31:44.627Z,93847.08
2019-01-27T22:34:15.312Z,93848.59
2019-01-27T22:36:46.011Z,93855.47
2019-01-27T22:39:16.267Z,93868.50
2019-01-27T22:41:46.952Z,93863.20
2019-01-27T22:44:17.370Z,93867.94
2019-01-27T22:46:47.713Z,93859.86
2019-01-27T22:49:18.178Z,93856.64
2019-01-27T22:51:48.757Z,93842.97
2019-01-27T22:54:19.051Z,93843.14
2019-01-27T22:56:49.573Z,93846.85
2019-01-27T22:59:19.884Z,93838.87
2019-01-27T23:01:50.767Z,93840.88
2019-01-27T23:04:21.457Z,93837.16
2019-01-27T23:06:52.055Z,93842.89
2019-01-27T23:09:22.518Z,93832.60
2019-01-27T23:11:53.328Z,93822.64
2019-01-27T23:14:23.614Z,93822.80
2019-01-27T23:16:53.950Z,93824.84
2019-01-27T23:19:24.747Z,93823.27
2019-01-27T23:21:55.176Z,93820.80
2019-01-27T23:24:25.476Z,93827.10
2019-01-27T23:26:56.152Z,93830.86
2019-01-27T23:29:26.701Z,93829.68
2019-01-27T23:31:57.171Z,93830.15
2019-01-27T23:34:27.950Z,93820.22
2019-01-27T23:36:58.631Z,93820.23
2019-01-27T23:39:29.942Z,93817.61
2019-01-27T23:42:00.562Z,93817.67
2019-01-27T23:44:31.167Z,93820.97
2019-01-27T23:47:01.518Z,93810.77
2019-01-27T23:49:32.014Z,93801.13
2019-01-27T23:52:03.063Z,93802.28
2019-01-27T23:54:34.437Z,93798.31
2019-01-27T23:57:04.905Z,93817.53
2019-01-27T23:59:35.430Z,93817.45
